Time;durP1;ratioP1;P1;durP2;ratioP2;P2;SDS_P1;SDS_P2;PMS_P1;PMS_P2;Temp;Humidity;BMP_temperature;BMP_pressure;BME280_temperature;BME280_humidity;BME280_pressure;Samples;Min_cycle;Max_cycle;Signal;HPM_P1;HPM_P2
2022/05/18 00:00:00;;;;;;;14.80;5.47;;;21.20;58.50;;;15.63;86.58;101642.84;172979;28;1100;-68
2022/05/18 00:00:15;;;;;;;17.27;5.52;;;21.20;58.50;;;15.63;86.24;101642.00;173337;28;1914;-68
2022/05/18 00:00:29;;;;;;;14.79;5.41;;;21.20;58.50;;;15.62;86.51;101633.25;174023;28;2199;-68
2022/05/18 00:00:35;;;;;;;10.50;5.21;;;21.30;58.50;;;15.63;86.31;101645.47;174039;28;1232;-69
2022/05/18 00:00:41;;;;;;;9.38;5.43;;;21.20;58.50;;;15.63;86.32;101642.84;174021;28;962;-68
2022/05/18 00:00:53;;;;;;;8.88;5.40;;;21.30;58.50;;;15.63;86.43;101640.22;174046;28;934;-68
2022/05/18 00:01:01;;;;;;;9.13;5.38;;;21.20;58.50;;;15.63;86.67;101648.09;173690;28;1210;-68
2022/05/18 00:01:11;;;;;;;8.75;5.45;;;21.20;58.50;;;15.63;86.63;101649.91;174048;28;1089;-68
2022/05/18 00:01:16;;;;;;;8.79;5.30;;;21.20;58.60;;;15.64;86.42;101651.59;174041;28;1023;-68
2022/05/18 00:01:22;;;;;;;9.38;5.40;;;21.20;58.60;;;15.63;86.67;101642.84;174027;28;852;-68
2022/05/18 00:01:28;;;;;;;9.18;5.40;;;21.20;58.60;;;15.62;86.67;101641.16;174050;28;1104;-68
2022/05/18 00:01:35;;;;;;;9.13;5.20;;;21.30;58.60;;;15.63;86.71;101637.59;174092;28;1336;-68
2022/05/18 00:01:41;;;;;;;9.13;5.37;;;21.20;58.60;;;15.62;86.61;101641.16;174067;28;895;-68
2022/05/18 00:01:47;;;;;;;8.90;5.32;;;21.20;58.60;;;15.61;86.60;101644.72;174063;28;935;-68
2022/05/18 00:01:53;;;;;;;8.80;5.25;;;21.30;58.60;;;15.63;86.63;101642.84;174068;28;1057;-68
2022/05/18 00:02:00;;;;;;;9.98;5.22;;;21.20;58.60;;;15.62;86.69;101641.16;173708;28;989;-68
2022/05/18 00:02:06;;;;;;;9.93;5.13;;;21.20;58.60;;;15.62;86.27;101646.41;174159;28;981;-68
2022/05/18 00:02:12;;;;;;;10.10;5.00;;;21.20;58.50;;;15.62;86.38;101641.16;174062;28;906;-68
2022/05/18 00:02:18;;;;;;;10.90;5.03;;;21.20;58.60;;;15.62;86.49;101646.41;174054;28;926;-68
2022/05/18 00:02:24;;;;;;;10.50;4.97;;;21.20;58.60;;;15.62;86.77;101651.66;174059;28;1029;-68
2022/05/18 00:02:30;;;;;;;9.90;5.07;;;21.20;58.60;;;15.63;86.65;101650.72;174096;28;969;-68
2022/05/18 00:02:37;;;;;;;10.02;5.15;;;21.20;58.60;;;15.62;86.55;101646.41;174127;28;805;-68
2022/05/18 00:02:42;;;;;;;9.55;5.18;;;21.20;58.60;;;15.63;86.41;101650.72;174092;28;914;-68
2022/05/18 00:02:49;;;;;;;9.25;5.30;;;21.20;58.60;;;15.62;86.64;101641.16;174085;28;985;-68
2022/05/18 00:03:04;;;;;;;9.66;5.26;;;21.30;58.60;;;15.62;86.78;101654.31;174049;28;910;-68
2022/05/18 00:03:12;;;;;;;9.60;5.18;;;21.20;58.60;;;15.62;86.76;101646.41;174069;28;1218;-68
2022/05/18 00:03:25;;;;;;;8.63;5.12;;;21.20;58.60;;;15.62;86.71;101645.53;174056;28;985;-68
2022/05/18 00:03:38;;;;;;;9.10;5.34;;;21.20;58.70;;;15.61;86.46;101649.97;174071;28;1226;-68
2022/05/18 00:03:46;;;;;;;10.80;5.36;;;21.30;58.70;;;15.61;86.61;101649.97;174069;28;1248;-68
2022/05/18 00:03:52;;;;;;;11.63;5.40;;;21.20;58.70;;;15.62;86.73;101651.66;174088;28;1864;-68
2022/05/18 00:03:58;;;;;;;10.67;5.30;;;21.20;58.60;;;15.62;86.26;101642.91;173806;28;981;-68
2022/05/18 00:04:04;;;;;;;10.38;5.25;;;21.20;58.60;;;15.62;86.37;101646.41;174596;28;1010;-68
2022/05/18 00:04:10;;;;;;;10.07;5.30;;;21.20;58.60;;;15.61;86.36;101649.97;174734;28;957;-68
2022/05/18 00:04:16;;;;;;;9.38;5.25;;;21.20;58.60;;;15.62;86.36;101651.66;173992;28;926;-69
2022/05/18 00:04:22;;;;;;;9.95;5.25;;;21.20;58.50;;;15.62;86.22;101656.06;173273;28;895;-68
2022/05/18 00:04:28;;;;;;;10.70;5.40;;;21.20;58.50;;;15.61;86.04;101644.72;173344;28;1164;-69
2022/05/18 00:04:34;;;;;;;10.50;5.38;;;21.20;58.40;;;15.61;86.30;101644.72;173392;28;1082;-68
2022/05/18 00:04:40;;;;;;;10.07;5.40;;;21.20;58.40;;;15.62;85.98;101651.66;173309;28;1061;-68
2022/05/18 00:04:45;;;;;;;10.23;5.40;;;21.20;58.40;;;15.61;86.09;101649.13;173364;28;831;-68
2022/05/18 00:04:51;;;;;;;9.30;5.33;;;21.20;58.40;;;15.60;86.16;101650.88;173313;28;1017;-68
2022/05/18 00:04:57;;;;;;;10.07;5.28;;;21.20;58.30;;;15.61;86.21;101649.97;173028;28;973;-68
2022/05/18 00:05:04;;;;;;;10.60;5.32;;;21.20;58.40;;;15.61;86.30;101649.13;173320;28;919;-68
2022/05/18 00:05:11;;;;;;;10.58;5.38;;;21.20;58.40;;;15.61;86.25;101654.38;173326;28;1137;-68
2022/05/18 00:05:16;;;;;;;10.80;5.40;;;21.20;58.40;;;15.61;86.50;101649.13;173332;28;1093;-68
2022/05/18 00:05:22;;;;;;;11.43;5.40;;;21.20;58.40;;;15.60;86.40;101645.63;173341;28;1033;-68
2022/05/18 00:05:28;;;;;;;10.30;5.35;;;21.20;58.40;;;15.61;86.41;101651.75;173318;28;863;-68
2022/05/18 00:05:40;;;;;;;9.93;5.32;;;21.20;58.50;;;15.61;86.24;101651.75;173379;28;951;-68
2022/05/18 00:05:47;;;;;;;9.57;5.55;;;21.20;58.40;;;15.61;86.43;101649.13;173337;28;1210;-68
2022/05/18 00:05:53;;;;;;;9.66;5.54;;;21.20;58.50;;;15.60;86.40;101656.16;173336;28;1144;-68
2022/05/18 00:06:02;;;;;;;10.60;5.60;;;21.20;58.50;;;15.60;86.35;101652.69;173049;28;891;-68
2022/05/18 00:06:10;;;;;;;11.20;5.46;;;21.20;58.50;;;15.60;86.71;101652.69;173300;28;1053;-68
2022/05/18 00:06:15;;;;;;;12.57;5.47;;;21.20;58.50;;;15.59;86.57;101649.19;173838;28;887;-68
2022/05/18 00:06:21;;;;;;;12.15;5.47;;;21.20;58.60;;;15.60;86.71;101648.25;174392;28;1316;-68
2022/05/18 00:06:27;;;;;;;10.87;5.40;;;21.20;58.60;;;15.59;86.54;101657.09;174731;28;966;-68
2022/05/18 00:06:33;;;;;;;10.93;5.50;;;21.20;58.60;;;15.59;86.41;101657.09;173954;28;961;-68
2022/05/18 00:06:38;;;;;;;9.88;5.40;;;21.20;58.60;;;15.59;86.48;101646.56;174053;28;1112;-68
2022/05/18 00:06:44;;;;;;;10.07;5.43;;;21.20;58.60;;;15.60;86.61;101653.50;174010;28;1022;-68
2022/05/18 00:06:50;;;;;;;9.82;5.35;;;21.20;58.60;;;15.59;86.82;101649.19;174038;28;847;-68
2022/05/18 00:06:55;;;;;;;9.88;5.38;;;21.20;58.70;;;15.59;86.64;101651.81;173924;28;871;-68
2022/05/18 00:07:01;;;;;;;10.60;5.25;;;21.20;58.70;;;15.58;86.75;101650.13;173898;28;926;-68
2022/05/18 00:07:07;;;;;;;10.53;5.37;;;21.20;58.70;;;15.59;86.50;101651.81;174076;28;863;-69
2022/05/18 00:07:12;;;;;;;9.88;5.20;;;21.20;58.70;;;15.58;86.35;101656.22;174057;28;985;-68
2022/05/18 00:07:19;;;;;;;9.50;5.10;;;21.20;58.60;;;15.58;86.81;101655.38;174043;28;859;-68
2022/05/18 00:07:24;;;;;;;9.68;5.05;;;21.20;58.60;;;15.57;86.43;101651.91;174007;28;1077;-69
2022/05/18 00:07:30;;;;;;;8.77;5.20;;;21.20;58.60;;;15.58;86.52;101644.88;174038;28;875;-68
2022/05/18 00:07:36;;;;;;;8.68;5.13;;;21.20;58.60;;;15.58;86.39;101655.38;174067;28;998;-68
2022/05/18 00:07:42;;;;;;;8.17;5.17;;;21.20;58.60;;;15.58;86.63;101650.13;174070;28;1465;-68
2022/05/18 00:07:47;;;;;;;8.45;5.20;;;21.20;58.60;;;15.58;86.84;101655.38;174060;28;1034;-68
2022/05/18 00:07:53;;;;;;;7.83;5.30;;;21.20;58.60;;;15.58;86.79;101652.75;174017;28;1026;-68
2022/05/18 00:07:59;;;;;;;7.97;5.18;;;21.20;58.60;;;15.58;86.72;101652.75;173737;28;1112;-68
2022/05/18 00:08:09;;;;;;;8.47;5.27;;;21.20;58.70;;;15.57;86.62;101654.53;174110;28;894;-68
2022/05/18 00:08:15;;;;;;;8.61;5.35;;;21.20;58.70;;;15.57;86.94;101648.44;173963;28;1132;-68
2022/05/18 00:08:21;;;;;;;8.40;5.23;;;21.20;58.70;;;15.56;86.66;101651.97;174031;28;981;-69
2022/05/18 00:08:29;;;;;;;8.52;5.20;;;21.20;58.70;;;15.56;86.72;101646.72;173998;28;930;-68
2022/05/18 00:08:37;;;;;;;8.57;5.13;;;21.20;58.70;;;15.56;86.95;101651.97;173996;28;1272;-68
2022/05/18 00:08:43;;;;;;;8.75;5.03;;;21.20;58.80;;;15.56;87.11;101651.97;174038;28;1232;-68
2022/05/18 00:08:49;;;;;;;8.75;5.00;;;21.20;58.80;;;15.56;86.72;101646.72;173872;28;1172;-69
2022/05/18 00:08:54;;;;;;;9.55;5.10;;;21.20;58.80;;;15.55;86.94;101651.13;174038;28;951;-68
2022/05/18 00:09:00;;;;;;;9.63;5.07;;;21.20;58.80;;;15.55;86.88;101652.91;173768;28;1171;-68
2022/05/18 00:09:06;;;;;;;9.03;5.00;;;21.20;58.80;;;15.55;86.84;101648.50;174088;28;909;-68
2022/05/18 00:09:11;;;;;;;8.63;4.93;;;21.20;58.80;;;15.55;86.94;101651.13;174042;28;935;-68
2022/05/18 00:09:17;;;;;;;8.80;4.97;;;21.20;58.80;;;15.55;86.72;101658.16;174034;28;859;-68
2022/05/18 00:09:23;;;;;;;9.50;5.03;;;21.20;58.80;;;15.55;87.04;101655.53;173997;28;1041;-69
2022/05/18 00:09:28;;;;;;;9.35;5.03;;;21.20;58.80;;;15.55;86.77;101655.53;174026;28;1139;-68
2022/05/18 00:09:34;;;;;;;10.63;5.10;;;21.20;58.80;;;15.54;86.87;101653.84;174062;28;938;-68
2022/05/18 00:09:40;;;;;;;10.67;5.10;;;21.20;58.80;;;15.54;86.96;101653.84;174027;28;1088;-68
2022/05/18 00:09:46;;;;;;;9.85;5.10;;;21.20;58.80;;;15.53;86.76;101647.72;173913;28;1099;-68
2022/05/18 00:09:51;;;;;;;8.77;4.97;;;21.20;58.70;;;15.55;86.92;101655.53;174046;28;911;-68
2022/05/18 00:09:57;;;;;;;7.85;5.00;;;21.20;58.70;;;15.54;86.55;101649.41;173611;28;1049;-68
2022/05/18 00:10:05;;;;;;;6.67;4.97;;;21.20;58.70;;;15.54;86.82;101653.84;174013;28;930;-68
2022/05/18 00:10:10;;;;;;;7.53;5.15;;;21.10;58.60;;;15.54;86.56;101648.59;174027;28;1086;-69
2022/05/18 00:10:18;;;;;;;8.07;5.07;;;21.20;58.70;;;15.54;86.64;101653.84;174037;28;1242;-68
2022/05/18 00:10:24;;;;;;;10.16;5.24;;;21.20;58.70;;;15.54;86.70;101653.84;174042;28;934;-69
2022/05/18 00:10:30;;;;;;;10.40;5.25;;;21.20;58.70;;;15.53;86.60;101652.97;174020;28;1499;-68
2022/05/18 00:10:40;;;;;;;9.98;5.13;;;21.20;58.70;;;15.53;86.87;101652.97;174159;28;950;-68
2022/05/18 00:10:49;;;;;;;11.40;5.24;;;21.20;58.70;;;15.54;86.68;101656.47;174057;28;1168;-69
2022/05/18 00:10:55;;;;;;;10.61;5.15;;;21.10;58.70;;;15.53;86.91;101650.34;174089;28;1359;-68
2022/05/18 00:11:05;;;;;;;10.40;5.27;;;21.20;58.70;;;15.53;86.99;101657.41;173973;28;1048;-68
2022/05/18 00:11:17;;;;;;;9.82;5.25;;;21.20;58.70;;;15.52;86.93;101651.28;174020;28;1165;-69
2022/05/18 00:11:23;;;;;;;8.86;5.26;;;21.10;58.80;;;15.52;86.87;101659.19;174031;28;1226;-69
2022/05/18 00:11:31;;;;;;;8.80;5.25;;;21.10;58.80;;;15.53;86.90;101655.63;174024;28;1113;-68
2022/05/18 00:11:37;;;;;;;9.03;5.25;;;21.20;58.80;;;15.53;87.14;101657.41;174089;28;1040;-68
2022/05/18 00:11:42;;;;;;;11.00;5.40;;;21.10;58.80;;;15.52;87.02;101653.06;174614;28;923;-68
2022/05/18 00:11:48;;;;;;;11.30;5.40;;;21.10;58.90;;;15.52;86.94;101655.69;173940;28;1002;-68
2022/05/18 00:11:54;;;;;;;10.55;5.43;;;21.10;58.90;;;15.52;87.28;101650.44;174039;28;1045;-68
2022/05/18 00:11:59;;;;;;;11.60;5.50;;;21.10;58.90;;;15.52;87.07;101655.69;173710;28;1480;-68
2022/05/18 00:12:06;;;;;;;12.20;5.60;;;21.20;58.90;;;15.51;87.19;101648.72;174051;28;1104;-69
2022/05/18 00:12:12;;;;;;;11.24;5.54;;;21.10;58.90;;;15.51;87.12;101648.72;174053;28;938;-68
2022/05/18 00:12:18;;;;;;;11.03;5.50;;;21.10;58.90;;;15.51;87.03;101656.63;173974;28;718;-68
2022/05/18 00:12:25;;;;;;;10.80;5.60;;;21.10;58.90;;;15.51;87.36;101651.38;173970;28;887;-69
2022/05/18 00:12:31;;;;;;;9.57;5.42;;;21.10;58.90;;;15.50;87.25;101654.94;173971;28;1163;-68
2022/05/18 00:12:49;;;;;;;9.07;5.30;;;21.10;58.90;;;15.51;87.01;101656.63;174065;28;1049;-68
2022/05/18 00:12:55;;;;;;;8.74;5.31;;;21.10;58.90;;;15.49;87.08;101655.84;174018;28;1229;-68
2022/05/18 00:13:02;;;;;;;9.22;5.40;;;21.10;58.90;;;15.49;87.10;101656.69;173947;28;1105;-69
2022/05/18 00:13:10;;;;;;;8.68;5.44;;;21.10;58.90;;;15.50;87.26;101652.31;173987;28;1145;-68
2022/05/18 00:13:17;;;;;;;8.22;5.34;;;21.10;58.90;;;15.49;87.52;101659.31;174002;28;1105;-68
2022/05/18 00:13:23;;;;;;;7.76;5.26;;;21.10;58.90;;;15.48;87.50;101654.16;174008;28;1191;-68
2022/05/18 00:13:28;;;;;;;8.23;5.30;;;21.10;58.90;;;15.49;87.43;101658.47;174014;28;879;-69
2022/05/18 00:13:36;;;;;;;8.65;5.40;;;21.10;58.90;;;15.48;87.43;101654.16;174021;28;1116;-68
2022/05/18 00:13:47;;;;;;;8.90;5.57;;;21.10;58.90;;;15.48;87.43;101660.25;174031;28;898;-68
2022/05/18 00:13:54;;;;;;;9.81;5.50;;;21.10;58.90;;;15.47;87.51;101655.94;174055;28;1175;-68
2022/05/18 00:14:00;;;;;;;9.72;5.38;;;21.10;58.90;;;15.47;87.46;101652.44;173768;28;961;-68
2022/05/18 00:14:06;;;;;;;9.85;5.30;;;21.10;59.00;;;15.47;87.20;101657.72;174095;28;1057;-68
2022/05/18 00:14:12;;;;;;;9.43;5.20;;;21.10;59.00;;;15.48;87.30;101664.66;174061;28;1144;-68
2022/05/18 00:14:18;;;;;;;8.50;5.20;;;21.10;59.00;;;15.48;87.45;101660.25;174099;28;906;-68
2022/05/18 00:14:24;;;;;;;7.68;5.13;;;21.10;59.00;;;15.47;87.48;101657.72;174077;28;879;-68
2022/05/18 00:14:30;;;;;;;8.43;5.28;;;21.10;59.00;;;15.47;87.54;101662.97;173977;28;931;-69
2022/05/18 00:14:37;;;;;;;8.10;5.30;;;21.10;59.00;;;15.47;87.43;101655.94;174099;28;911;-68
2022/05/18 00:14:44;;;;;;;9.40;5.42;;;21.10;59.10;;;15.47;87.61;101657.72;174081;28;986;-68
2022/05/18 00:14:51;;;;;;;10.12;5.60;;;21.10;59.10;;;15.47;87.69;101657.72;174633;28;1126;-68
2022/05/18 00:14:57;;;;;;;9.34;5.56;;;21.10;59.10;;;15.47;87.55;101657.72;174415;28;1999;-68
2022/05/18 00:15:04;;;;;;;9.32;5.60;;;21.10;59.10;;;15.47;87.44;101662.97;174704;28;952;-69
2022/05/18 00:15:11;;;;;;;8.40;5.45;;;21.10;59.10;;;15.47;87.40;101662.97;174815;28;887;-68
2022/05/18 00:15:21;;;;;;;8.42;5.28;;;21.10;59.10;;;15.45;87.62;101656.00;173887;28;1420;-68
2022/05/18 00:15:29;;;;;;;8.88;5.18;;;21.10;59.10;;;15.45;87.71;101653.38;174016;28;1354;-68
2022/05/18 00:15:36;;;;;;;9.78;5.20;;;21.10;59.10;;;15.45;87.73;101660.41;174035;28;994;-69
2022/05/18 00:15:46;;;;;;;9.50;5.20;;;21.10;59.10;;;15.45;87.67;101656.00;174043;28;907;-68
2022/05/18 00:15:52;;;;;;;9.67;5.44;;;21.10;59.20;;;15.44;87.72;101658.72;174038;28;1155;-68
2022/05/18 00:15:58;;;;;;;10.27;5.50;;;21.10;59.20;;;15.45;87.63;101660.41;173712;28;1392;-68
2022/05/18 00:16:06;;;;;;;10.40;5.43;;;21.10;59.20;;;15.44;87.74;101649.03;174027;28;958;-69
2022/05/18 00:16:15;;;;;;;10.76;5.53;;;21.10;59.30;;;15.45;87.90;101657.78;173252;28;1296;-68
2022/05/18 00:16:25;;;;;;;11.36;5.60;;;21.10;59.30;;;15.44;87.89;101659.56;173319;28;1107;-69
2022/05/18 00:16:31;;;;;;;10.30;5.50;;;21.10;59.40;;;15.44;88.20;101659.56;173322;28;1150;-68
2022/05/18 00:16:37;;;;;;;9.60;5.38;;;21.00;59.40;;;15.44;88.15;101662.19;173296;28;1021;-69
2022/05/18 00:16:43;;;;;;;10.27;5.35;;;21.00;59.40;;;15.44;88.15;101659.56;173360;28;851;-68
2022/05/18 00:16:48;;;;;;;10.02;5.30;;;21.00;59.40;;;15.44;88.13;101659.56;173314;28;955;-68
2022/05/18 00:16:54;;;;;;;9.33;5.33;;;21.10;59.40;;;15.43;87.97;101657.84;172666;28;962;-68
2022/05/18 00:17:03;;;;;;;9.43;5.40;;;21.10;59.40;;;15.44;87.95;101653.47;172389;28;953;-68
2022/05/18 00:17:09;;;;;;;10.06;5.47;;;21.00;59.40;;;15.44;88.04;101663.97;173339;28;1058;-68
2022/05/18 00:17:15;;;;;;;9.70;5.50;;;21.00;59.40;;;15.43;88.23;101662.28;173666;28;927;-68
2022/05/18 00:17:21;;;;;;;10.40;5.50;;;21.10;59.50;;;15.43;88.00;101662.28;173273;28;1007;-69
2022/05/18 00:17:27;;;;;;;10.50;5.60;;;21.10;59.40;;;15.43;88.35;101660.50;173335;28;1109;-68
2022/05/18 00:17:33;;;;;;;10.47;5.70;;;21.10;59.50;;;15.43;88.37;101659.66;173385;28;1164;-68
2022/05/18 00:17:39;;;;;;;10.70;5.63;;;21.10;59.50;;;15.42;88.47;101656.16;173343;28;981;-69
2022/05/18 00:17:45;;;;;;;10.55;5.50;;;21.10;59.50;;;15.42;88.38;101656.16;173334;28;904;-69
2022/05/18 00:17:52;;;;;;;10.27;5.50;;;21.10;59.50;;;15.42;88.37;101661.41;173323;28;1152;-68
2022/05/18 00:17:58;;;;;;;10.97;5.50;;;21.00;59.50;;;15.42;88.26;101658.78;173065;28;915;-68
2022/05/18 00:18:06;;;;;;;10.67;5.50;;;21.00;59.50;;;15.42;88.28;101661.41;172603;28;1581;-68
2022/05/18 00:18:13;;;;;;;10.50;5.50;;;21.10;59.60;;;15.42;88.55;101661.41;173204;28;907;-68
2022/05/18 00:18:19;;;;;;;10.60;5.47;;;21.10;59.60;;;15.42;88.47;101660.56;173361;28;1145;-68
2022/05/18 00:18:24;;;;;;;10.15;5.40;;;21.00;59.60;;;15.40;88.36;101655.38;173333;28;934;-68
2022/05/18 00:18:30;;;;;;;9.93;5.40;;;21.10;59.60;;;15.42;88.49;101665.81;173323;28;1030;-68
2022/05/18 00:18:36;;;;;;;9.73;5.40;;;21.00;59.60;;;15.42;88.64;101665.81;173378;28;1029;-68
2022/05/18 00:18:43;;;;;;;8.90;5.47;;;21.00;59.60;;;15.40;88.63;101658.00;173288;28;1094;-68
2022/05/18 00:18:49;;;;;;;8.47;5.57;;;21.00;59.60;;;15.40;88.65;101663.25;173319;28;993;-68
2022/05/18 00:18:55;;;;;;;9.00;5.70;;;21.10;59.70;;;15.40;88.67;101662.44;173349;28;1089;-68
2022/05/18 00:19:01;;;;;;;9.28;5.74;;;21.10;59.70;;;15.40;88.82;101662.44;173258;28;1356;-68
2022/05/18 00:19:07;;;;;;;9.93;5.77;;;21.10;59.70;;;15.39;88.67;101664.19;173362;28;942;-69
2022/05/18 00:19:13;;;;;;;9.85;5.80;;;21.00;59.70;;;15.38;88.64;101654.63;173339;28;894;-68
2022/05/18 00:19:18;;;;;;;10.65;5.95;;;21.00;59.70;;;15.39;88.74;101665.97;173616;28;998;-68
2022/05/18 00:19:24;;;;;;;11.83;6.10;;;21.00;59.60;;;15.38;88.81;101665.13;174029;28;934;-68
2022/05/18 00:19:32;;;;;;;11.85;6.03;;;21.10;59.60;;;15.38;88.54;101665.13;174012;28;1045;-68
2022/05/18 00:19:38;;;;;;;11.33;5.87;;;21.00;59.70;;;15.38;88.64;101665.13;174037;28;987;-69
2022/05/18 00:19:44;;;;;;;11.65;5.97;;;21.10;59.70;;;15.37;88.66;101663.44;174018;28;966;-68
2022/05/18 00:19:49;;;;;;;11.73;5.80;;;21.10;59.70;;;15.38;88.83;101661.63;174026;28;856;-68
2022/05/18 00:19:55;;;;;;;9.98;5.70;;;21.10;59.70;;;15.37;88.75;101665.22;174020;28;1001;-68
2022/05/18 00:20:01;;;;;;;9.40;5.73;;;21.00;59.70;;;15.37;88.79;101663.44;173909;28;914;-69
2022/05/18 00:20:09;;;;;;;9.73;5.80;;;21.00;59.70;;;15.37;89.12;101666.06;174023;28;2530;-69
2022/05/18 00:20:16;;;;;;;9.97;5.83;;;21.00;59.70;;;15.37;88.69;101662.59;174041;28;1112;-69
2022/05/18 00:20:23;;;;;;;8.47;5.80;;;21.00;59.80;;;15.35;88.79;101664.41;174089;28;1102;-68
2022/05/18 00:20:29;;;;;;;8.90;5.80;;;21.00;59.80;;;15.36;88.95;101666.16;174048;28;948;-68
2022/05/18 00:20:35;;;;;;;9.05;5.80;;;21.10;59.80;;;15.35;88.85;101664.41;174573;28;974;-69
2022/05/18 00:20:41;;;;;;;8.45;5.68;;;21.00;59.80;;;15.34;88.97;101663.59;174723;28;1100;-68
2022/05/18 00:20:47;;;;;;;8.52;5.60;;;21.00;59.80;;;15.34;89.01;101668.84;174644;28;1354;-69
2022/05/18 00:20:53;;;;;;;9.10;5.53;;;21.00;59.80;;;15.33;89.07;101661.91;174580;28;1309;-69
2022/05/18 00:21:00;;;;;;;9.27;5.40;;;21.00;59.80;;;15.34;89.02;101663.59;174411;28;847;-68
2022/05/18 00:21:08;;;;;;;9.52;5.54;;;21.00;59.80;;;15.32;89.20;101661.03;174725;28;1041;-68
2022/05/18 00:21:14;;;;;;;10.42;5.60;;;21.00;59.80;;;15.34;89.14;101663.59;174689;28;1025;-68
2022/05/18 00:21:21;;;;;;;10.62;5.64;;;21.00;59.80;;;15.34;89.28;101663.59;174716;28;965;-69
2022/05/18 00:21:27;;;;;;;11.07;5.80;;;21.00;59.80;;;15.33;89.05;101659.25;174725;28;1089;-68
2022/05/18 00:21:33;;;;;;;10.93;5.70;;;21.00;59.80;;;15.34;89.03;101666.22;174700;28;887;-68
2022/05/18 00:21:41;;;;;;;9.87;5.70;;;21.00;59.80;;;15.33;89.17;101667.16;174763;28;1151;-68
2022/05/18 00:21:47;;;;;;;9.54;5.64;;;21.00;59.80;;;15.32;88.88;101665.44;174679;28;1081;-68
2022/05/18 00:21:52;;;;;;;8.50;5.60;;;21.00;59.80;;;15.32;89.11;101666.28;174706;28;998;-69
2022/05/18 00:21:59;;;;;;;8.13;5.57;;;21.00;59.80;;;15.33;88.94;101669.78;174414;28;1017;-68
2022/05/18 00:22:05;;;;;;;8.13;5.70;;;21.10;59.80;;;15.32;89.19;101666.28;174687;28;911;-68
2022/05/18 00:22:11;;;;;;;8.57;5.63;;;21.00;59.80;;;15.33;89.23;101667.16;174759;28;1033;-68
2022/05/18 00:22:16;;;;;;;8.48;5.70;;;21.10;59.80;;;15.33;89.13;101667.16;174707;28;1028;-68
2022/05/18 00:22:22;;;;;;;8.60;5.70;;;21.00;59.80;;;15.33;88.96;101667.16;173965;28;1030;-68
2022/05/18 00:22:28;;;;;;;9.07;5.70;;;21.00;59.80;;;15.32;89.35;101665.44;174031;28;844;-69
2022/05/18 00:22:41;;;;;;;9.13;5.65;;;21.10;59.80;;;15.32;89.09;101665.44;173721;28;855;-68
2022/05/18 00:22:59;;;;;;;10.23;5.64;;;21.00;59.80;;;15.32;89.12;101670.69;173344;28;1242;-68
2022/05/18 00:23:06;;;;;;;10.23;5.76;;;21.00;59.80;;;15.31;88.92;101667.22;174013;28;1238;-69
2022/05/18 00:23:12;;;;;;;8.30;5.80;;;21.00;59.70;;;15.31;88.96;101667.22;174060;28;1368;-68
2022/05/18 00:23:17;;;;;;;9.05;5.75;;;21.00;59.70;;;15.31;89.08;101666.38;174060;28;907;-68
2022/05/18 00:23:23;;;;;;;9.07;5.65;;;21.00;59.70;;;15.30;88.97;101668.13;174021;28;998;-68
2022/05/18 00:23:29;;;;;;;9.40;5.60;;;21.00;59.70;;;15.31;89.06;101669.00;174010;28;1088;-68
2022/05/18 00:23:35;;;;;;;9.18;5.68;;;21.00;59.70;;;15.31;89.18;101663.72;174015;28;1108;-68
2022/05/18 00:23:42;;;;;;;9.67;5.63;;;21.00;59.70;;;15.31;88.92;101669.00;174083;28;832;-68
2022/05/18 00:23:47;;;;;;;8.86;5.60;;;21.00;59.70;;;15.31;89.05;101663.72;174019;28;1076;-69
2022/05/18 00:23:53;;;;;;;9.68;5.60;;;21.00;59.70;;;15.31;89.01;101666.38;174015;28;942;-68
2022/05/18 00:23:59;;;;;;;9.10;5.60;;;21.00;59.70;;;15.31;88.95;101669.00;173697;28;1021;-68
2022/05/18 00:24:05;;;;;;;9.32;5.55;;;21.00;59.70;;;15.31;89.08;101669.84;174030;28;954;-68
2022/05/18 00:24:11;;;;;;;9.34;5.52;;;21.00;59.70;;;15.31;89.32;101664.59;174064;28;935;-68
2022/05/18 00:24:18;;;;;;;10.07;5.45;;;21.00;59.80;;;15.29;89.26;101663.81;174023;28;1409;-68
2022/05/18 00:24:25;;;;;;;9.00;5.40;;;21.00;59.80;;;15.31;89.15;101669.00;174089;28;989;-68
2022/05/18 00:24:30;;;;;;;9.00;5.32;;;21.00;59.80;;;15.31;89.19;101658.47;174059;28;1109;-69
2022/05/18 00:24:36;;;;;;;8.43;5.30;;;21.00;59.70;;;15.31;89.13;101666.38;174085;28;1104;-68
2022/05/18 00:24:42;;;;;;;9.00;5.40;;;21.00;59.70;;;15.30;89.02;101668.13;174100;28;1421;-68
2022/05/18 00:24:48;;;;;;;8.07;5.35;;;21.00;59.70;;;15.30;88.78;101667.28;174085;28;981;-68
2022/05/18 00:24:54;;;;;;;9.17;5.40;;;21.00;59.70;;;15.30;89.04;101662.03;173947;28;1325;-68
2022/05/18 00:25:01;;;;;;;9.82;5.38;;;21.00;59.70;;;15.30;89.12;101672.56;173708;28;1333;-68
2022/05/18 00:25:08;;;;;;;12.20;5.47;;;21.00;59.70;;;15.30;88.99;101667.28;174096;28;1924;-69
2022/05/18 00:25:16;;;;;;;11.43;5.40;;;21.00;59.70;;;15.30;88.82;101667.28;174058;28;1056;-68
2022/05/18 00:25:36;;;;;;;11.98;5.55;;;21.00;59.70;;;15.30;89.17;101662.03;174056;28;1009;-68
2022/05/18 00:25:41;;;;;;;11.55;5.81;;;20.90;59.70;;;15.30;89.01;101662.03;174047;28;1245;-69
2022/05/18 00:25:47;;;;;;;10.45;5.75;;;21.00;59.80;;;15.30;89.15;101667.28;174051;28;931;-68
2022/05/18 00:25:53;;;;;;;10.40;5.72;;;21.00;59.80;;;15.30;88.99;101657.59;174028;28;1049;-69
2022/05/18 00:25:59;;;;;;;9.70;5.60;;;21.00;59.80;;;15.30;89.00;101662.03;173735;28;1014;-68
2022/05/18 00:26:06;;;;;;;10.10;5.80;;;21.00;59.80;;;15.30;88.77;101662.03;174089;28;1061;-68
2022/05/18 00:26:12;;;;;;;10.70;5.87;;;21.00;59.80;;;15.30;89.37;101667.28;174093;28;982;-68
2022/05/18 00:26:18;;;;;;;11.13;5.80;;;21.00;59.80;;;15.29;89.08;101658.53;174022;28;1077;-69
2022/05/18 00:26:25;;;;;;;10.90;5.82;;;20.90;59.80;;;15.30;89.34;101664.66;174066;28;931;-69
2022/05/18 00:26:31;;;;;;;11.38;5.96;;;21.00;59.80;;;15.30;89.08;101667.28;174020;28;1351;-68
2022/05/18 00:26:37;;;;;;;10.52;5.80;;;21.00;59.80;;;15.30;89.01;101662.03;174074;28;1065;-69
2022/05/18 00:26:42;;;;;;;10.17;5.80;;;21.00;59.80;;;15.30;88.89;101667.28;174051;28;848;-68
2022/05/18 00:26:48;;;;;;;9.43;5.80;;;21.00;59.80;;;15.30;88.90;101669.94;174037;28;1010;-69
2022/05/18 00:26:54;;;;;;;8.80;5.80;;;20.90;59.70;;;15.29;89.14;101665.56;174072;28;1342;-68
2022/05/18 00:27:03;;;;;;;7.73;5.60;;;21.00;59.70;;;15.29;89.05;101661.19;173691;28;1452;-68
2022/05/18 00:27:09;;;;;;;8.83;5.60;;;20.90;59.70;;;15.30;88.85;101664.66;174134;28;1005;-68
2022/05/18 00:27:15;;;;;;;9.27;5.60;;;21.00;59.70;;;15.29;88.76;101670.84;174085;28;855;-69
2022/05/18 00:27:20;;;;;;;9.93;5.60;;;21.00;59.70;;;15.29;89.02;101660.31;174065;28;951;-68
2022/05/18 00:27:26;;;;;;;10.30;5.60;;;21.00;59.70;;;15.28;88.83;101669.13;174070;28;1058;-69
2022/05/18 00:27:32;;;;;;;10.48;5.63;;;21.00;59.70;;;15.29;88.79;101660.31;174022;28;922;-69
2022/05/18 00:27:37;;;;;;;9.93;5.60;;;20.90;59.70;;;15.29;88.92;101660.31;174078;28;1030;-69
2022/05/18 00:27:43;;;;;;;10.00;5.63;;;20.90;59.70;;;15.29;88.84;101660.31;174058;28;978;-68
2022/05/18 00:27:49;;;;;;;9.00;5.60;;;21.00;59.70;;;15.28;88.79;101666.50;174057;28;1125;-69
2022/05/18 00:27:55;;;;;;;8.80;5.65;;;20.90;59.70;;;15.29;88.95;101660.31;174058;28;695;-68
2022/05/18 00:28:01;;;;;;;8.65;5.80;;;21.00;59.70;;;15.28;89.10;101663.88;173957;28;1321;-68
2022/05/18 00:28:09;;;;;;;9.50;5.82;;;21.00;59.70;;;15.28;88.91;101664.75;174652;28;1063;-68
2022/05/18 00:28:14;;;;;;;9.73;6.00;;;20.90;59.70;;;15.29;89.19;101660.31;174735;28;890;-68
2022/05/18 00:28:20;;;;;;;9.77;5.97;;;21.00;59.70;;;15.29;89.20;101662.94;174688;28;875;-68
2022/05/18 00:28:26;;;;;;;10.27;5.90;;;21.00;59.80;;;15.28;88.92;101663.88;174726;28;949;-69
2022/05/18 00:28:33;;;;;;;12.02;5.85;;;20.90;59.80;;;15.28;88.89;101656.00;174719;28;961;-68
2022/05/18 00:28:39;;;;;;;11.28;5.76;;;21.00;59.80;;;15.28;88.96;101661.25;174747;28;1259;-68